Time;durP1;ratioP1;P1;durP2;ratioP2;P2;SDS_P1;SDS_P2;PMS_P1;PMS_P2;Temp;Humidity;BMP_temperature;BMP_pressure;BME280_temperature;BME280_humidity;BME280_pressure;Samples;Min_cycle;Max_cycle;Signal;HPM_P1;HPM_P2
2023/05/21 00:00:44;;;;;;;6.75;1.90;;;14.10;99.90;;;;;;5093963;28;20044;-53
2023/05/21 00:03:12;;;;;;;4.53;1.90;;;14.10;99.90;;;;;;5093724;28;20051;-51
2023/05/21 00:05:43;;;;;;;4.30;1.95;;;14.10;99.90;;;;;;5092495;28;20402;-54
2023/05/21 00:08:08;;;;;;;4.38;1.90;;;14.10;99.90;;;;;;5093557;28;20052;-53
2023/05/21 00:10:34;;;;;;;5.00;1.90;;;14.10;99.90;;;;;;5093451;28;20138;-51
2023/05/21 00:12:59;;;;;;;4.23;1.63;;;14.10;99.90;;;;;;5092606;28;20282;-51
2023/05/21 00:15:25;;;;;;;4.90;2.20;;;14.10;99.90;;;;;;5092628;28;20087;-50
2023/05/21 00:17:51;;;;;;;5.03;2.13;;;14.10;99.90;;;;;;5093505;28;20040;-52
2023/05/21 00:20:17;;;;;;;5.45;1.92;;;14.10;99.90;;;;;;5092355;28;20286;-53
2023/05/21 00:22:42;;;;;;;4.17;1.80;;;14.10;99.90;;;;;;5093622;28;20403;-51
2023/05/21 00:25:12;;;;;;;4.27;1.73;;;14.10;99.90;;;;;;5093189;28;20047;-52
2023/05/21 00:27:37;;;;;;;4.22;1.73;;;14.10;99.90;;;;;;5094176;28;20302;-54
2023/05/21 00:30:04;;;;;;;4.75;1.63;;;14.10;99.90;;;;;;5097382;28;20152;-53
2023/05/21 00:32:29;;;;;;;5.40;1.38;;;14.20;99.90;;;;;;5097388;28;20127;-50
2023/05/21 00:34:57;;;;;;;4.17;1.70;;;14.20;99.90;;;;;;5096255;28;20079;-53
2023/05/21 00:37:23;;;;;;;4.07;1.77;;;14.20;99.90;;;;;;5097331;28;20402;-52
2023/05/21 00:39:49;;;;;;;;;;;14.20;99.90;;;;;;5097539;28;20376;-54
2023/05/21 00:42:16;;;;;;;3.85;1.60;;;14.20;99.90;;;;;;5097483;28;19927;-53
2023/05/21 00:44:44;;;;;;;3.97;1.75;;;14.20;99.90;;;;;;5097132;28;20449;-53
2023/05/21 00:47:12;;;;;;;3.97;1.70;;;14.10;99.90;;;;;;5096924;28;20497;-50
2023/05/21 00:49:38;;;;;;;5.35;1.83;;;14.20;99.90;;;;;;5097013;28;20400;-54
2023/05/21 00:52:04;;;;;;;3.97;1.70;;;14.20;99.90;;;;;;5096934;28;20039;-50
2023/05/21 00:54:30;;;;;;;4.35;1.73;;;14.10;99.90;;;;;;5096909;28;20492;-54
2023/05/21 00:56:56;;;;;;;4.35;1.73;;;14.20;99.90;;;;;;5096928;28;20039;-49
2023/05/21 00:59:23;;;;;;;2.97;1.38;;;14.20;99.90;;;;;;5097028;28;20466;-53
2023/05/21 01:01:54;;;;;;;5.50;2.05;;;14.20;99.90;;;;;;5096878;28;20044;-51
2023/05/21 01:04:22;;;;;;;4.03;1.70;;;14.10;99.90;;;;;;5096970;28;20051;-52
2023/05/21 01:06:48;;;;;;;3.45;1.52;;;14.20;99.90;;;;;;5096762;28;20097;-52
2023/05/21 01:09:14;;;;;;;3.67;2.13;;;14.10;99.90;;;;;;5097270;28;20484;-53
2023/05/21 01:11:45;;;;;;;5.43;1.98;;;14.20;99.90;;;;;;5096652;28;20282;-50
2023/05/21 01:14:13;;;;;;;4.85;1.90;;;14.10;99.90;;;;;;5096929;28;20444;-49
2023/05/21 01:16:42;;;;;;;5.88;2.03;;;14.10;99.90;;;;;;5096684;28;20083;-49
2023/05/21 01:19:12;;;;;;;4.70;1.77;;;14.10;99.90;;;;;;5096378;28;20048;-50
2023/05/21 01:21:43;;;;;;;3.17;1.73;;;14.10;99.90;;;;;;5096363;28;20044;-51
2023/05/21 01:24:09;;;;;;;3.60;1.70;;;14.10;99.90;;;;;;5096728;28;20051;-53
2023/05/21 01:26:37;;;;;;;6.07;2.13;;;14.10;99.90;;;;;;5096507;28;20048;-50
2023/05/21 01:29:06;;;;;;;4.75;1.92;;;14.10;99.90;;;;;;5096336;28;20040;-50
2023/05/21 01:31:52;;;;;;;4.75;2.42;;;14.10;99.90;;;;;;5078290;28;20051;-50
2023/05/21 01:34:22;;;;;;;5.25;2.25;;;14.10;99.90;;;;;;5095432;28;20044;-53
2023/05/21 01:36:54;;;;;;;4.95;2.03;;;14.00;99.90;;;;;;5096336;28;20048;-50
2023/05/21 01:39:32;;;;;;;4.43;2.08;;;14.10;99.90;;;;;;5093975;28;20051;-52
2023/05/21 01:42:02;;;;;;;6.18;2.70;;;14.10;99.90;;;;;;5096238;28;20063;-53
2023/05/21 01:44:28;;;;;;;4.72;2.08;;;14.00;99.90;;;;;;5094756;28;20388;-50
2023/05/21 01:46:56;;;;;;;6.22;2.30;;;14.00;99.90;;;;;;5096254;28;20062;-50
2023/05/21 01:49:22;;;;;;;4.15;2.20;;;14.10;99.90;;;;;;5096452;28;20044;-52
2023/05/21 01:51:49;;;;;;;4.95;2.22;;;14.00;99.90;;;;;;5095930;28;20105;-53
2023/05/21 01:54:14;;;;;;;5.80;2.20;;;14.00;99.90;;;;;;5095831;28;20047;-48
2023/05/21 01:56:40;;;;;;;5.53;2.67;;;14.00;99.90;;;;;;5095769;28;20415;-54
2023/05/21 01:59:06;;;;;;;6.32;2.17;;;14.00;99.90;;;;;;5095705;28;20044;-54
2023/05/21 02:01:31;;;;;;;5.67;2.27;;;14.00;99.90;;;;;;5095778;28;20048;-51
2023/05/21 02:03:57;;;;;;;4.57;2.20;;;14.00;99.90;;;;;;5095692;28;20510;-52
2023/05/21 02:06:23;;;;;;;4.63;2.27;;;14.00;99.90;;;;;;5095756;28;20155;-50
2023/05/21 02:08:49;;;;;;;4.97;2.15;;;14.00;99.90;;;;;;5095599;28;20630;-50
2023/05/21 02:11:15;;;;;;;5.00;2.38;;;13.90;99.90;;;;;;5095420;28;20044;-49
2023/05/21 02:13:41;;;;;;;5.53;2.28;;;13.90;99.90;;;;;;5095517;28;20048;-51
2023/05/21 02:16:13;;;;;;;5.70;2.50;;;13.90;99.90;;;;;;5095495;28;20126;-50
2023/05/21 02:18:42;;;;;;;4.78;2.25;;;13.90;99.90;;;;;;5095401;28;20105;-52
2023/05/21 02:21:11;;;;;;;6.35;2.25;;;13.90;99.90;;;;;;5094437;28;20051;-50
2023/05/21 02:23:37;;;;;;;5.13;2.10;;;13.80;99.90;;;;;;5095442;28;20149;-52
2023/05/21 02:26:03;;;;;;;6.03;2.60;;;13.80;99.90;;;;;;5094979;28;20063;-48
2023/05/21 02:28:29;;;;;;;6.07;2.35;;;13.70;99.90;;;;;;5095270;28;20471;-53
2023/05/21 02:30:55;;;;;;;5.72;2.28;;;13.70;99.90;;;;;;5095464;28;20407;-52
2023/05/21 02:33:21;;;;;;;4.63;2.03;;;13.70;99.90;;;;;;5095129;28;20542;-51
2023/05/21 02:35:47;;;;;;;4.10;1.90;;;13.70;99.90;;;;;;5095076;28;20083;-50
2023/05/21 02:38:18;;;;;;;5.53;2.20;;;13.70;99.90;;;;;;5094813;28;20080;-54
2023/05/21 02:40:44;;;;;;;6.05;2.45;;;13.70;99.90;;;;;;5094734;28;20108;-50
2023/05/21 02:43:10;;;;;;;5.20;2.28;;;13.60;99.90;;;;;;5094354;28;20058;-53
2023/05/21 02:45:35;;;;;;;6.03;2.42;;;13.60;99.90;;;;;;5093977;28;20044;-50
2023/05/21 02:48:01;;;;;;;6.63;2.67;;;13.60;99.90;;;;;;5093912;28;20040;-53
2023/05/21 02:50:27;;;;;;;7.90;2.30;;;13.50;99.90;;;;;;5094492;28;20519;-51
2023/05/21 02:52:52;;;;;;;5.75;2.50;;;13.50;99.90;;;;;;5094613;28;20101;-54
2023/05/21 02:55:18;;;;;;;7.97;2.80;;;13.50;99.90;;;;;;5094477;28;20089;-53
2023/05/21 02:57:44;;;;;;;5.07;2.40;;;13.40;99.90;;;;;;5094609;28;20093;-54
2023/05/21 03:00:10;;;;;;;5.23;2.13;;;13.40;99.90;;;;;;5094626;28;20043;-51
2023/05/21 03:02:36;;;;;;;6.68;2.50;;;13.30;99.90;;;;;;5095023;28;20360;-49
2023/05/21 03:05:01;;;;;;;6.00;2.13;;;13.30;99.90;;;;;;5094517;28;20055;-53
2023/05/21 03:07:27;;;;;;;5.95;2.55;;;13.30;99.90;;;;;;5094506;28;20074;-51
2023/05/21 03:09:53;;;;;;;4.93;2.40;;;13.30;99.90;;;;;;5094395;28;20051;-52
2023/05/21 03:12:19;;;;;;;6.18;2.53;;;13.20;99.90;;;;;;5094216;28;20131;-54
2023/05/21 03:14:45;;;;;;;5.57;2.30;;;13.20;99.90;;;;;;5094432;28;20101;-53
2023/05/21 03:17:12;;;;;;;6.22;2.08;;;13.20;99.90;;;;;;5094302;28;20036;-54
2023/05/21 03:19:39;;;;;;;4.95;2.30;;;13.20;99.90;;;;;;5094134;28;20453;-52
2023/05/21 03:22:05;;;;;;;5.72;2.40;;;13.20;99.90;;;;;;5094094;28;20095;-50
2023/05/21 03:24:31;;;;;;;6.60;3.15;;;13.20;99.90;;;;;;5094200;28;20101;-53
2023/05/21 03:27:01;;;;;;;7.88;2.42;;;13.20;99.90;;;;;;5094196;28;20135;-50
2023/05/21 03:29:27;;;;;;;6.07;2.47;;;13.20;99.90;;;;;;5093205;28;20479;-51
2023/05/21 03:31:54;;;;;;;7.88;2.47;;;13.20;99.90;;;;;;5093978;28;20087;-52
2023/05/21 03:34:19;;;;;;;;;;;13.20;99.90;;;;;;5094519;28;20391;-52
2023/05/21 03:36:46;;;;;;;6.82;2.20;;;13.10;99.90;;;;;;5093962;28;19919;-52
2023/05/21 03:39:12;;;;;;;;;;;13.10;99.90;;;;;;5094265;28;20119;-50
2023/05/21 03:41:37;;;;;;;4.95;2.20;;;13.20;99.90;;;;;;5093840;28;19963;-54
2023/05/21 03:44:03;;;;;;;6.00;2.07;;;13.10;99.90;;;;;;5092966;28;20490;-49
2023/05/21 03:46:29;;;;;;;4.78;2.00;;;13.10;99.90;;;;;;5093839;28;20047;-51
2023/05/21 03:48:56;;;;;;;6.23;2.30;;;13.20;99.90;;;;;;5093842;28;20036;-51
2023/05/21 03:51:23;;;;;;;7.72;2.28;;;13.20;99.90;;;;;;5093545;28;20278;-52
2023/05/21 03:53:49;;;;;;;;;;;13.20;99.90;;;;;;5093171;28;20059;-54
2023/05/21 03:56:15;;;;;;;5.78;2.63;;;13.20;99.90;;;;;;5093816;28;19927;-54
2023/05/21 03:58:41;;;;;;;5.63;1.88;;;13.20;99.90;;;;;;5093673;28;20471;-53
2023/05/21 04:01:07;;;;;;;5.63;2.47;;;13.20;99.90;;;;;;5092616;28;20083;-48
2023/05/21 04:03:36;;;;;;;5.93;2.25;;;13.20;99.90;;;;;;5093148;28;20441;-48
2023/05/21 04:06:02;;;;;;;7.32;1.98;;;13.20;99.90;;;;;;5093545;28;20037;-49
2023/05/21 04:08:28;;;;;;;5.47;2.13;;;13.20;99.90;;;;;;5093357;28;20036;-49
2023/05/21 04:10:54;;;;;;;6.47;2.37;;;13.20;99.90;;;;;;5093632;28;20480;-50
2023/05/21 04:13:20;;;;;;;4.90;2.28;;;13.20;99.90;;;;;;5092756;28;20056;-50
2023/05/21 04:15:45;;;;;;;5.28;1.98;;;13.20;99.90;;;;;;5093661;28;20373;-50
2023/05/21 04:18:19;;;;;;;4.40;1.90;;;13.20;99.90;;;;;;5093681;28;20079;-49
2023/05/21 04:20:45;;;;;;;4.57;1.90;;;13.20;99.90;;;;;;5093560;28;20281;-51
2023/05/21 04:23:10;;;;;;;5.57;2.03;;;13.20;99.90;;;;;;5093853;28;20441;-51
2023/05/21 04:25:37;;;;;;;6.30;2.17;;;13.20;99.90;;;;;;5093498;28;20224;-51
2023/05/21 04:28:03;;;;;;;4.55;1.77;;;13.20;99.90;;;;;;5093788;28;20340;-50
2023/05/21 04:30:29;;;;;;;4.43;1.70;;;13.30;99.90;;;;;;5093378;28;20059;-52
2023/05/21 04:32:54;;;;;;;7.33;1.97;;;13.20;99.90;;;;;;5092516;28;20044;-52
2023/05/21 04:35:20;;;;;;;4.78;1.98;;;13.30;99.90;;;;;;5093228;28;20048;-50
2023/05/21 04:37:46;;;;;;;6.80;2.10;;;13.30;99.90;;;;;;5093506;28;20063;-50
2023/05/21 04:40:17;;;;;;;6.80;2.23;;;13.30;99.90;;;;;;5093632;28;20391;-51
2023/05/21 04:42:45;;;;;;;4.40;1.55;;;13.30;99.90;;;;;;5093175;28;20063;-50
2023/05/21 04:45:11;;;;;;;4.15;1.60;;;13.30;99.90;;;;;;5093380;28;20197;-49
2023/05/21 04:47:37;;;;;;;4.00;1.55;;;13.30;99.90;;;;;;5093470;28;20492;-49
2023/05/21 04:50:03;;;;;;;5.65;1.52;;;13.30;99.90;;;;;;5092115;28;20079;-51
2023/05/21 04:52:29;;;;;;;4.85;1.73;;;13.30;99.90;;;;;;5093276;28;20071;-50
2023/05/21 04:54:56;;;;;;;4.82;2.10;;;13.40;99.90;;;;;;5093306;28;20502;-50
2023/05/21 04:57:23;;;;;;;3.75;1.70;;;13.40;99.90;;;;;;5093453;28;20048;-48
2023/05/21 04:59:49;;;;;;;4.82;1.60;;;13.40;99.90;;;;;;5093265;28;20084;-52
2023/05/21 05:02:14;;;;;;;4.53;1.73;;;13.40;99.90;;;;;;5093172;28;20160;-52
2023/05/21 05:04:42;;;;;;;4.47;1.67;;;13.30;99.90;;;;;;5092949;28;20076;-50
2023/05/21 05:07:08;;;;;;;5.03;1.73;;;13.30;99.90;;;;;;5093202;28;20483;-52
2023/05/21 05:09:34;;;;;;;4.93;1.42;;;13.30;99.90;;;;;;5093161;28;20040;-50
2023/05/21 05:12:00;;;;;;;5.75;1.70;;;13.40;99.90;;;;;;5092968;28;20537;-50
2023/05/21 05:14:26;;;;;;;4.35;1.45;;;13.40;99.90;;;;;;5094789;28;20483;-51
2023/05/21 05:16:53;;;;;;;6.63;1.53;;;13.50;99.90;;;;;;5096552;28;20048;-48
2023/05/21 05:19:18;;;;;;;;;;;13.50;99.90;;;;;;5097238;28;20040;-49
2023/05/21 05:21:44;;;;;;;5.10;2.30;;;13.60;99.90;;;;;;5096611;28;20011;-50
2023/05/21 05:24:10;;;;;;;3.78;1.52;;;13.60;99.90;;;;;;5096681;28;20137;-50
2023/05/21 05:26:35;;;;;;;5.33;2.20;;;13.60;99.90;;;;;;5096697;28;20395;-49
2023/05/21 05:29:01;;;;;;;6.43;1.63;;;13.70;99.90;;;;;;5096307;28;20055;-49
2023/05/21 05:31:27;;;;;;;8.30;2.23;;;13.80;99.90;;;;;;5078637;28;20101;-49
2023/05/21 05:33:52;;;;;;;5.10;1.80;;;13.80;99.90;;;;;;5096174;28;20086;-50
2023/05/21 05:36:18;;;;;;;4.93;1.60;;;14.00;99.90;;;;;;5095142;28;20040;-50
2023/05/21 05:38:44;;;;;;;4.27;1.40;;;14.10;99.90;;;;;;5096206;28;20040;-50
2023/05/21 05:41:09;;;;;;;5.43;1.63;;;14.20;99.90;;;;;;5095879;28;20173;-52
2023/05/21 05:43:35;;;;;;;4.87;1.50;;;14.30;99.90;;;;;;5094741;28;20060;-51
2023/05/21 05:46:01;;;;;;;5.53;1.70;;;14.30;99.90;;;;;;5094830;28;20166;-53
2023/05/21 05:48:26;;;;;;;6.50;1.83;;;14.30;99.90;;;;;;5095812;28;20198;-52
2023/05/21 05:50:55;;;;;;;4.25;1.42;;;14.30;99.90;;;;;;5096009;28;20055;-49
2023/05/21 05:53:21;;;;;;;3.55;1.33;;;14.40;99.90;;;;;;5096058;28;20054;-52
2023/05/21 05:55:47;;;;;;;6.30;1.67;;;14.40;99.90;;;;;;5096011;28;20052;-52
2023/05/21 05:58:13;;;;;;;3.70;1.50;;;14.40;99.90;;;;;;5095813;28;20391;-52
2023/05/21 06:00:38;;;;;;;6.10;2.07;;;14.40;99.90;;;;;;5095706;28;20052;-49
2023/05/21 06:03:04;;;;;;;5.67;1.73;;;14.50;99.90;;;;;;5094647;28;20678;-51
2023/05/21 06:05:30;;;;;;;6.50;1.60;;;14.50;99.90;;;;;;5095740;28;20055;-53
2023/05/21 06:07:56;;;;;;;4.20;1.60;;;14.60;99.90;;;;;;5170224;22;20089;-51
2023/05/21 06:10:21;;;;;;;3.85;1.45;;;14.60;99.90;;;;;;5055501;28;20127;-49
2023/05/21 06:12:47;;;;;;;6.73;1.40;;;14.60;99.90;;;;;;5054523;28;20095;-49
2023/05/21 06:15:18;;;;;;;4.53;1.40;;;14.70;99.90;;;;;;5055215;28;20091;-51
2023/05/21 06:17:43;;;;;;;3.40;1.33;;;14.60;99.90;;;;;;5055065;28;20056;-48
2023/05/21 06:20:10;;;;;;;6.03;1.67;;;14.60;99.90;;;;;;5055335;28;20049;-50
2023/05/21 06:22:36;;;;;;;5.25;1.35;;;14.60;99.90;;;;;;5054245;28;20102;-53
2023/05/21 06:25:03;;;;;;;4.55;1.85;;;14.60;99.90;;;;;;5054991;28;20049;-50
2023/05/21 06:27:29;;;;;;;4.35;1.40;;;14.60;99.90;;;;;;5055003;28;20037;-50
2023/05/21 06:29:56;;;;;;;4.30;1.80;;;14.60;99.90;;;;;;5055104;28;20056;-51
2023/05/21 06:32:23;;;;;;;5.13;1.95;;;14.60;99.90;;;;;;5053880;28;20511;-50
2023/05/21 06:34:49;;;;;;;5.70;1.77;;;14.60;99.90;;;;;;5055375;28;20395;-50
2023/05/21 06:37:19;;;;;;;5.93;1.70;;;14.60;99.90;;;;;;5055189;28;20037;-53
2023/05/21 06:39:46;;;;;;;5.57;1.90;;;14.70;99.90;;;;;;5055164;28;20053;-49
2023/05/21 06:42:12;;;;;;;5.55;1.77;;;14.70;99.90;;;;;;5054992;28;20458;-54
2023/05/21 06:44:37;;;;;;;6.73;1.87;;;14.70;99.90;;;;;;5054738;28;20090;-54
2023/05/21 06:47:03;;;;;;;4.77;1.63;;;14.80;99.90;;;;;;5055238;28;20646;-54
2023/05/21 06:49:29;;;;;;;5.78;1.60;;;14.80;99.90;;;;;;5054746;28;20045;-53
2023/05/21 06:51:54;;;;;;;4.47;1.53;;;14.90;99.90;;;;;;5054691;28;20419;-54
2023/05/21 06:54:20;;;;;;;5.07;1.70;;;14.90;99.90;;;;;;5054651;28;20132;-50
2023/05/21 06:56:46;;;;;;;4.17;1.60;;;14.90;99.90;;;;;;5053663;28;20366;-50
2023/05/21 06:59:11;;;;;;;4.80;1.17;;;15.00;99.90;;;;;;5054619;28;20049;-53
2023/05/21 07:01:41;;;;;;;3.93;1.53;;;15.00;99.90;;;;;;5054494;28;20491;-49
2023/05/21 07:04:07;;;;;;;4.35;1.27;;;15.10;99.90;;;;;;5054586;28;20287;-51
2023/05/21 07:06:33;;;;;;;7.82;1.95;;;15.20;99.90;;;;;;5054412;28;20049;-48
2023/05/21 07:08:59;;;;;;;5.03;1.73;;;15.20;99.90;;;;;;5054280;28;20515;-53
2023/05/21 07:11:27;;;;;;;5.53;1.80;;;15.30;99.90;;;;;;5054362;28;20053;-48
2023/05/21 07:13:54;;;;;;;5.22;1.90;;;15.30;99.90;;;;;;5052810;28;20079;-54
2023/05/21 07:16:20;;;;;;;5.65;1.77;;;15.30;99.90;;;;;;5036668;28;20049;-50
2023/05/21 07:18:45;;;;;;;2.83;1.20;;;15.30;99.90;;;;;;5052883;28;20055;-54
2023/05/21 07:21:11;;;;;;;3.47;1.30;;;15.30;99.90;;;;;;5054309;28;20056;-52
2023/05/21 07:23:37;;;;;;;5.47;1.87;;;15.40;99.90;;;;;;5054049;28;20626;-52
2023/05/21 07:26:02;;;;;;;4.35;1.30;;;15.40;99.90;;;;;;5053854;28;20114;-55
2023/05/21 07:28:28;;;;;;;4.18;2.13;;;15.40;99.90;;;;;;5053891;28;20546;-53
2023/05/21 07:30:54;;;;;;;5.03;1.43;;;15.40;99.90;;;;;;5054016;28;20098;-53
2023/05/21 07:33:21;;;;;;;4.00;1.60;;;15.30;99.90;;;;;;5053889;28;20280;-55
2023/05/21 07:35:47;;;;;;;4.57;1.38;;;15.30;99.90;;;;;;5053791;28;20286;-54
2023/05/21 07:38:13;;;;;;;4.00;1.30;;;15.30;99.90;;;;;;5052897;28;20045;-52
2023/05/21 07:40:38;;;;;;;3.45;1.42;;;15.30;99.90;;;;;;5053708;28;20090;-49
2023/05/21 07:43:04;;;;;;;5.23;1.33;;;15.30;99.90;;;;;;5036083;28;20081;-55
2023/05/21 07:45:30;;;;;;;4.03;1.30;;;15.30;99.90;;;;;;5054133;28;20280;-53
2023/05/21 07:47:55;;;;;;;4.67;1.53;;;15.30;99.90;;;;;;5053691;28;20127;-53
2023/05/21 07:50:21;;;;;;;4.25;1.35;;;15.30;99.90;;;;;;5053722;28;20312;-53
2023/05/21 07:52:47;;;;;;;4.70;1.52;;;15.40;99.90;;;;;;5053792;28;20573;-54
2023/05/21 07:55:12;;;;;;;4.30;1.47;;;15.40;99.90;;;;;;5053686;28;20076;-54
2023/05/21 07:57:38;;;;;;;4.80;1.45;;;15.40;99.90;;;;;;5052286;28;20370;-54
2023/05/21 08:00:08;;;;;;;4.60;1.80;;;15.40;99.90;;;;;;5052493;28;20044;-53
2023/05/21 08:02:33;;;;;;;3.50;1.27;;;15.40;99.90;;;;;;5053493;28;20122;-55
2023/05/21 08:05:00;;;;;;;4.15;1.52;;;15.50;99.90;;;;;;5053567;28;20037;-50
2023/05/21 08:07:26;;;;;;;4.30;1.25;;;15.50;99.90;;;;;;5053357;28;20056;-49
2023/05/21 08:09:53;;;;;;;3.45;1.48;;;15.60;99.90;;;;;;5053314;28;20489;-50
2023/05/21 08:12:19;;;;;;;5.03;2.05;;;15.60;99.90;;;;;;5052161;28;20049;-54
2023/05/21 08:14:44;;;;;;;5.97;2.10;;;15.60;99.90;;;;;;5053329;28;20049;-50
2023/05/21 08:17:10;;;;;;;3.97;1.85;;;15.60;99.90;;;;;;5053493;28;20045;-48
2023/05/21 08:19:36;;;;;;;4.05;1.27;;;15.70;99.90;;;;;;5053717;28;20411;-53
2023/05/21 08:22:02;;;;;;;3.45;1.30;;;15.70;99.90;;;;;;5053283;28;20048;-52
2023/05/21 08:24:28;;;;;;;3.38;1.48;;;15.70;99.90;;;;;;5053194;28;20446;-51
2023/05/21 08:26:53;;;;;;;5.83;1.50;;;15.70;99.90;;;;;;5053181;28;20059;-52
2023/05/21 08:29:19;;;;;;;4.13;1.33;;;15.70;99.90;;;;;;5053513;28;20123;-47
2023/05/21 08:31:45;;;;;;;4.53;1.73;;;15.70;99.90;;;;;;5053305;28;20385;-51
2023/05/21 08:34:10;;;;;;;4.93;1.40;;;15.70;99.90;;;;;;5053280;28;20369;-53
2023/05/21 08:36:37;;;;;;;11.25;1.70;;;15.70;99.90;;;;;;5053107;28;20396;-54
2023/05/21 08:39:03;;;;;;;5.32;1.55;;;15.70;99.90;;;;;;5052903;28;20127;-49
2023/05/21 08:41:31;;;;;;;4.22;1.63;;;15.80;99.90;;;;;;5052788;28;20453;-49
2023/05/21 08:44:00;;;;;;;4.35;1.42;;;15.80;99.90;;;;;;5053160;28;20060;-49
2023/05/21 08:46:31;;;;;;;3.50;1.42;;;15.80;99.90;;;;;;5053511;28;20060;-49
2023/05/21 08:49:00;;;;;;;5.28;1.48;;;15.80;99.90;;;;;;5053097;28;20048;-49
2023/05/21 08:51:27;;;;;;;3.83;1.77;;;15.80;99.90;;;;;;5056994;28;20045;-48
2023/05/21 08:53:53;;;;;;;4.40;2.00;;;15.80;99.90;;;;;;5056808;28;20041;-49
2023/05/21 08:56:20;;;;;;;4.18;1.60;;;15.90;99.90;;;;;;5056677;28;20056;-49
2023/05/21 08:58:45;;;;;;;3.40;1.30;;;15.90;99.90;;;;;;5056494;28;20388;-52
2023/05/21 09:01:11;;;;;;;3.83;1.42;;;15.90;99.90;;;;;;5056840;28;20041;-51
2023/05/21 09:03:41;;;;;;;3.03;1.48;;;15.90;99.90;;;;;;5056675;28;20040;-48
2023/05/21 09:06:12;;;;;;;5.25;1.60;;;15.90;99.90;;;;;;5056702;28;20056;-53
2023/05/21 09:08:44;;;;;;;3.20;1.23;;;15.90;99.90;;;;;;5056814;28;20416;-49
2023/05/21 09:11:10;;;;;;;4.97;1.70;;;16.00;99.90;;;;;;5056573;28;20092;-54
2023/05/21 09:13:37;;;;;;;4.00;1.65;;;16.10;99.90;;;;;;5056372;28;20045;-47
2023/05/21 09:16:05;;;;;;;4.85;1.67;;;16.10;99.90;;;;;;5056549;28;20103;-49
2023/05/21 09:18:31;;;;;;;4.32;1.25;;;16.10;99.90;;;;;;5056433;28;20037;-49
2023/05/21 09:20:57;;;;;;;4.20;1.33;;;16.20;99.90;;;;;;5056397;28;20051;-49
2023/05/21 09:23:23;;;;;;;4.20;1.45;;;16.30;99.90;;;;;;5055398;28;20052;-48
2023/05/21 09:25:50;;;;;;;3.47;1.35;;;16.30;99.90;;;;;;5055357;28;20048;-50
2023/05/21 09:28:17;;;;;;;3.00;1.48;;;16.40;99.90;;;;;;5056562;28;20041;-50
2023/05/21 09:30:48;;;;;;;4.82;1.60;;;16.40;99.90;;;;;;5056444;28;20089;-50
2023/05/21 09:33:30;;;;;;;3.28;1.33;;;16.40;99.90;;;;;;5056130;28;20057;-49
2023/05/21 09:35:56;;;;;;;4.03;1.63;;;16.40;99.90;;;;;;5056120;28;20049;-51
2023/05/21 09:38:22;;;;;;;5.30;1.50;;;16.50;99.90;;;;;;5055798;28;20041;-52
2023/05/21 09:40:48;;;;;;;;;;;16.60;99.90;;;;;;5056875;28;20132;-54
2023/05/21 09:43:17;;;;;;;3.20;1.50;;;16.50;99.90;;;;;;5054953;28;20403;-49
2023/05/21 09:45:53;;;;;;;4.65;1.48;;;16.60;99.90;;;;;;5055834;28;20052;-48
2023/05/21 09:48:34;;;;;;;2.85;1.33;;;16.60;99.90;;;;;;5055790;28;20424;-54
2023/05/21 09:51:16;;;;;;;3.45;1.55;;;16.70;99.90;;;;;;5055995;28;20119;-49
2023/05/21 09:53:51;;;;;;;4.32;1.52;;;16.70;99.90;;;;;;5055700;28;20131;-48
2023/05/21 09:56:23;;;;;;;4.05;1.48;;;16.80;99.90;;;;;;5055636;28;20055;-50
2023/05/21 09:58:53;;;;;;;3.90;1.50;;;16.80;99.90;;;;;;5054252;28;20052;-47
2023/05/21 10:01:20;;;;;;;4.10;1.40;;;16.90;99.90;;;;;;5054823;28;20095;-47
2023/05/21 10:03:50;;;;;;;4.68;1.63;;;16.90;99.90;;;;;;5055503;28;20045;-47
2023/05/21 10:06:17;;;;;;;4.25;1.20;;;16.80;99.90;;;;;;5055483;28;20477;-49
2023/05/21 10:08:47;;;;;;;3.35;1.52;;;16.90;99.90;;;;;;5055323;28;20079;-49
2023/05/21 10:11:14;;;;;;;4.45;1.10;;;16.90;99.90;;;;;;5055233;28;20049;-53
2023/05/21 10:13:43;;;;;;;3.55;1.30;;;17.00;99.90;;;;;;5055571;28;20056;-48
2023/05/21 10:16:10;;;;;;;3.47;1.45;;;17.00;99.90;;;;;;5055330;28;20080;-53
2023/05/21 10:18:37;;;;;;;2.92;1.20;;;17.00;99.90;;;;;;5055419;28;20048;-49
2023/05/21 10:21:05;;;;;;;3.25;1.17;;;17.10;99.90;;;;;;5055305;28;20067;-51
2023/05/21 10:23:35;;;;;;;5.47;1.60;;;17.10;99.90;;;;;;5055273;28;20041;-48
2023/05/21 10:26:01;;;;;;;4.47;1.48;;;17.10;99.90;;;;;;5055052;28;20049;-49
2023/05/21 10:28:29;;;;;;;4.57;1.40;;;17.10;99.90;;;;;;5055398;28;20098;-48
2023/05/21 10:30:56;;;;;;;5.20;1.50;;;17.00;99.90;;;;;;5055068;28;20088;-48
2023/05/21 10:33:23;;;;;;;5.20;1.30;;;17.10;99.90;;;;;;5055359;28;20052;-49
2023/05/21 10:35:50;;;;;;;5.00;1.63;;;17.10;99.90;;;;;;5055095;28;20057;-47
2023/05/21 10:38:19;;;;;;;5.28;1.88;;;17.20;99.90;;;;;;5054731;28;20045;-48
2023/05/21 10:40:47;;;;;;;4.75;1.67;;;17.20;99.90;;;;;;5055116;28;20048;-48
2023/05/21 10:43:52;;;;;;;5.00;1.88;;;17.20;99.90;;;;;;5054092;28;20044;-47
2023/05/21 10:46:51;;;;;;;5.57;1.67;;;17.30;99.90;;;;;;5054664;28;20045;-48
2023/05/21 10:49:44;;;;;;;3.88;1.75;;;17.30;99.90;;;;;;5054720;28;20049;-47
2023/05/21 10:52:48;;;;;;;5.65;1.83;;;17.50;99.90;;;;;;5054677;28;20488;-47
2023/05/21 10:55:48;;;;;;;3.97;1.98;;;17.50;99.90;;;;;;5055151;28;20045;-48
2023/05/21 10:58:26;;;;;;;5.85;1.60;;;17.60;99.90;;;;;;5038246;28;20415;-48
2023/05/21 11:00:54;;;;;;;5.25;1.60;;;17.60;99.90;;;;;;5054446;28;20053;-48
2023/05/21 11:03:21;;;;;;;4.20;1.70;;;17.60;99.90;;;;;;5054374;28;20076;-47
2023/05/21 11:05:55;;;;;;;3.67;1.70;;;17.70;99.90;;;;;;5054431;28;20037;-47
2023/05/21 11:08:33;;;;;;;5.13;2.15;;;17.80;99.90;;;;;;5054328;28;20056;-47
2023/05/21 11:10:59;;;;;;;4.95;1.92;;;17.80;99.90;;;;;;5054623;28;20061;-46
2023/05/21 11:13:47;;;;;;;7.53;2.42;;;17.80;99.90;;;;;;5054085;28;20044;-48
2023/05/21 11:16:15;;;;;;;4.22;1.92;;;17.80;99.90;;;;;;5054315;28;20041;-49
2023/05/21 11:18:40;;;;;;;5.32;2.15;;;17.70;99.90;;;;;;5054115;28;20040;-45
2023/05/21 11:21:09;;;;;;;5.75;2.08;;;17.80;99.90;;;;;;5054077;28;20049;-48
2023/05/21 11:24:02;;;;;;;5.68;2.20;;;17.80;99.90;;;;;;5054362;28;20095;-45
2023/05/21 11:26:49;;;;;;;6.72;2.35;;;17.90;99.90;;;;;;5052180;28;20061;-46
2023/05/21 11:29:15;;;;;;;6.13;2.45;;;18.00;99.90;;;;;;5052287;28;20369;-46
2023/05/21 11:31:57;;;;;;;6.63;2.20;;;18.00;99.90;;;;;;5053968;28;20037;-48
2023/05/21 11:34:27;;;;;;;5.18;2.30;;;18.10;99.90;;;;;;5054000;28;20041;-46
2023/05/21 11:37:23;;;;;;;7.57;2.70;;;18.20;99.90;;;;;;5053574;28;20048;-46
2023/05/21 11:39:50;;;;;;;5.10;2.20;;;18.20;99.90;;;;;;5054100;28;20171;-46
2023/05/21 11:42:37;;;;;;;6.78;2.30;;;18.30;99.90;;;;;;5053827;28;20055;-45
2023/05/21 11:45:03;;;;;;;;;;;18.50;99.90;;;;;;5054127;28;20056;-45
2023/05/21 11:47:30;;;;;;;4.63;2.10;;;18.50;99.90;;;;;;5052593;28;19921;-46
2023/05/21 11:49:59;;;;;;;6.18;2.60;;;18.50;99.90;;;;;;5053718;28;20059;-46
2023/05/21 11:52:27;;;;;;;5.63;2.30;;;18.60;99.90;;;;;;5053649;28;20419;-44
2023/05/21 11:54:57;;;;;;;4.80;2.78;;;18.60;99.90;;;;;;5053532;28;20084;-46
2023/05/21 11:57:32;;;;;;;5.43;2.95;;;18.60;99.90;;;;;;5052381;28;20146;-46
2023/05/21 12:00:07;;;;;;;5.85;2.50;;;18.60;99.90;;;;;;5053618;28;20052;-46
2023/05/21 12:02:32;;;;;;;6.78;2.78;;;18.50;99.90;;;;;;5053628;28;20132;-46
2023/05/21 12:04:59;;;;;;;7.25;3.50;;;18.40;99.90;;;;;;5053578;28;20128;-48
2023/05/21 12:07:28;;;;;;;7.38;2.80;;;18.30;99.90;;;;;;5053463;28;20056;-47
2023/05/21 12:09:54;;;;;;;6.18;2.78;;;18.20;99.90;;;;;;5053301;28;20049;-45
2023/05/21 12:12:23;;;;;;;7.68;3.40;;;18.00;99.90;;;;;;5053193;28;20045;-46
2023/05/21 12:14:50;;;;;;;6.88;3.55;;;17.90;99.90;;;;;;5053461;28;20102;-46
2023/05/21 12:17:23;;;;;;;7.47;3.70;;;17.90;99.90;;;;;;5053555;28;20049;-45
2023/05/21 12:19:56;;;;;;;6.78;3.45;;;17.80;99.90;;;;;;5053507;28;20049;-46
2023/05/21 12:22:26;;;;;;;8.52;3.53;;;17.80;99.90;;;;;;5053156;28;20041;-45
2023/05/21 12:24:53;;;;;;;7.68;3.53;;;17.90;99.90;;;;;;5055856;28;20504;-45
2023/05/21 12:27:21;;;;;;;7.10;3.40;;;17.90;99.90;;;;;;5057681;28;20403;-46
2023/05/21 12:29:50;;;;;;;6.38;3.17;;;18.00;99.90;;;;;;5057272;28;20045;-47
2023/05/21 12:32:16;;;;;;;7.45;3.25;;;18.10;99.90;;;;;;5057296;28;20045;-47
2023/05/21 12:34:45;;;;;;;6.95;3.25;;;18.20;99.90;;;;;;5057289;28;20056;-46
2023/05/21 12:37:25;;;;;;;7.80;3.92;;;18.30;99.90;;;;;;5055957;28;20045;-45
2023/05/21 12:39:57;;;;;;;6.90;3.42;;;18.30;99.90;;;;;;5057290;28;20124;-46
2023/05/21 12:42:34;;;;;;;6.47;3.28;;;18.40;99.90;;;;;;5056268;28;20400;-47
2023/05/21 12:45:00;;;;;;;;;;;18.50;99.90;;;;;;5057586;28;20583;-51
2023/05/21 12:47:27;;;;;;;6.27;3.27;;;18.60;99.90;;;;;;5057016;28;20384;-47
2023/05/21 12:49:54;;;;;;;;;;;18.60;99.90;;;;;;5057236;28;20049;-48
2023/05/21 12:52:20;;;;;;;10.07;3.85;;;18.70;99.90;;;;;;5057031;28;19925;-46